Time;durP1;ratioP1;P1;durP2;ratioP2;P2;SDS_P1;SDS_P2;PMS_P1;PMS_P2;Temp;Humidity;BMP_temperature;BMP_pressure;BME280_temperature;BME280_humidity;BME280_pressure;Samples;Min_cycle;Max_cycle;Signal;HPM_P1;HPM_P2
2023/07/28 00:01:26;;;;;;;0.43;0.30;;;19.20;99.90;;;;;;5096617;28;20031;-76
2023/07/28 00:03:52;;;;;;;0.00;0.00;;;19.50;99.90;;;;;;5096995;28;20039;-77
2023/07/28 00:06:18;;;;;;;0.13;0.13;;;19.80;99.90;;;;;;5096610;28;20028;-76
2023/07/28 00:08:43;;;;;;;2.95;2.63;;;19.60;99.90;;;;;;5096878;28;20063;-77
2023/07/28 00:11:12;;;;;;;0.10;0.10;;;19.60;99.90;;;;;;5096393;28;20047;-77
2023/07/28 00:13:38;;;;;;;0.95;0.52;;;19.40;99.90;;;;;;5096631;28;20063;-77
2023/07/28 00:16:04;;;;;;;0.40;0.28;;;19.30;99.90;;;;;;5096557;28;20078;-75
2023/07/28 00:18:30;;;;;;;0.28;0.28;;;19.40;99.90;;;;;;5096602;28;20035;-74
2023/07/28 00:20:55;;;;;;;0.00;0.00;;;19.40;99.90;;;;;;5096739;28;20016;-74
2023/07/28 00:23:21;;;;;;;1.30;0.75;;;19.50;99.90;;;;;;5096325;28;20180;-74
2023/07/28 00:25:47;;;;;;;0.10;0.10;;;19.50;99.90;;;;;;5096230;28;20040;-76
2023/07/28 00:28:13;;;;;;;0.00;0.00;;;19.40;99.90;;;;;;5096379;28;20070;-74
2023/07/28 00:30:39;;;;;;;0.00;0.00;;;19.20;99.90;;;;;;5095403;28;20111;-75
2023/07/28 00:33:05;;;;;;;0.68;0.60;;;19.10;99.90;;;;;;5095139;28;20155;-75
2023/07/28 00:35:31;;;;;;;0.00;0.00;;;19.40;99.90;;;;;;5095020;28;20127;-76
2023/07/28 00:37:56;;;;;;;0.95;0.50;;;19.40;99.90;;;;;;5096231;28;20095;-76
2023/07/28 00:40:22;;;;;;;0.40;0.40;;;19.70;99.90;;;;;;5095729;28;20035;-76
2023/07/28 00:42:49;;;;;;;0.55;0.55;;;19.60;99.90;;;;;;5094833;28;20074;-77
2023/07/28 00:45:15;;;;;;;0.75;0.75;;;19.70;99.90;;;;;;5096085;28;20411;-76
2023/07/28 00:47:41;;;;;;;0.80;0.52;;;19.50;99.90;;;;;;5081535;28;20032;-77
2023/07/28 00:50:09;;;;;;;0.22;0.22;;;19.80;99.90;;;;;;5094899;28;20020;-76
2023/07/28 00:52:35;;;;;;;0.00;0.00;;;19.70;99.90;;;;;;5092645;28;20048;-77
2023/07/28 00:55:02;;;;;;;3.75;2.38;;;19.70;99.90;;;;;;5094198;28;20119;-77
2023/07/28 00:57:27;;;;;;;0.08;0.08;;;19.60;99.90;;;;;;5095528;28;20024;-77
2023/07/28 00:59:53;;;;;;;4.30;1.50;;;19.40;99.90;;;;;;5094363;28;20024;-77
2023/07/28 01:02:20;;;;;;;1.27;1.13;;;19.50;99.90;;;;;;5079981;28;20039;-77
2023/07/28 01:04:47;;;;;;;1.77;1.67;;;19.30;99.90;;;;;;5094140;28;20484;-77
2023/07/28 01:07:13;;;;;;;2.50;2.10;;;19.40;99.90;;;;;;5093075;28;20116;-77
2023/07/28 01:10:22;;;;;;;0.00;0.00;;;19.60;99.90;;;;;;5089010;28;20473;-77
2023/07/28 01:12:48;;;;;;;0.28;0.28;;;19.70;99.90;;;;;;5076587;28;20090;-77
2023/07/28 01:15:14;;;;;;;1.83;1.73;;;19.70;99.90;;;;;;5094402;28;20024;-77
2023/07/28 01:17:42;;;;;;;3.08;0.40;;;19.50;99.90;;;;;;5093020;28;20038;-77
2023/07/28 01:20:08;;;;;;;0.15;0.15;;;19.60;99.90;;;;;;5092939;28;20059;-77
2023/07/28 01:23:11;;;;;;;0.60;0.60;;;19.60;99.90;;;;;;5093926;28;20132;-77
2023/07/28 01:25:43;;;;;;;0.68;0.68;;;19.90;99.90;;;;;;5094358;28;20034;-77
2023/07/28 01:28:10;;;;;;;4.38;3.33;;;19.90;99.90;;;;;;5078450;28;20025;-77
2023/07/28 01:30:36;;;;;;;0.00;0.00;;;19.70;99.90;;;;;;5094302;28;20036;-77
2023/07/28 01:33:06;;;;;;;0.00;0.00;;;19.70;99.90;;;;;;5093936;28;20043;-76
2023/07/28 01:35:32;;;;;;;6.13;2.72;;;19.80;99.90;;;;;;5094107;28;20459;-77
2023/07/28 01:37:58;;;;;;;0.55;0.55;;;19.60;99.90;;;;;;5092381;28;20032;-77
2023/07/28 01:40:24;;;;;;;3.10;2.05;;;19.60;99.90;;;;;;5093938;28;20107;-76
2023/07/28 01:42:49;;;;;;;0.50;0.50;;;19.40;99.90;;;;;;5094035;28;20024;-77
2023/07/28 01:45:15;;;;;;;0.20;0.20;;;19.70;99.90;;;;;;5093696;28;20460;-77
2023/07/28 01:47:41;;;;;;;0.35;0.35;;;19.90;99.90;;;;;;5092822;28;20029;-77
2023/07/28 01:50:06;;;;;;;1.48;1.38;;;19.80;99.90;;;;;;5092473;28;20073;-74
2023/07/28 01:52:32;;;;;;;0.60;0.60;;;19.80;99.90;;;;;;5093597;28;20028;-77
2023/07/28 01:54:58;;;;;;;1.92;1.65;;;19.50;99.90;;;;;;5093767;28;20020;-77
2023/07/28 01:57:27;;;;;;;0.20;0.20;;;19.60;99.90;;;;;;5093488;28;20089;-77
2023/07/28 01:59:54;;;;;;;0.38;0.38;;;19.40;99.90;;;;;;5092358;28;20480;-77
2023/07/28 02:02:19;;;;;;;0.63;0.55;;;19.50;99.90;;;;;;5040899;28;1095058;-77
2023/07/28 02:04:46;;;;;;;1.92;0.93;;;19.40;99.90;;;;;;5094503;28;20078;-77
2023/07/28 02:07:11;;;;;;;0.32;0.32;;;19.50;99.90;;;;;;5094404;28;20028;-77
2023/07/28 02:09:37;;;;;;;1.33;1.23;;;19.50;99.90;;;;;;5093151;28;20035;-74
2023/07/28 02:12:03;;;;;;;0.75;0.75;;;19.50;99.90;;;;;;5084662;28;20507;-77
2023/07/28 02:14:29;;;;;;;0.20;0.20;;;19.40;99.90;;;;;;5092973;28;20024;-77
2023/07/28 02:16:54;;;;;;;0.00;0.00;;;19.60;99.90;;;;;;5094476;28;20023;-76
2023/07/28 02:19:20;;;;;;;0.73;0.63;;;19.50;99.90;;;;;;5094094;28;20028;-76
2023/07/28 02:21:46;;;;;;;0.10;0.10;;;19.50;99.90;;;;;;5093250;28;20107;-77
2023/07/28 02:24:11;;;;;;;3.30;1.05;;;19.50;99.90;;;;;;5092819;28;20360;-77
2023/07/28 02:26:37;;;;;;;0.00;0.00;;;19.40;99.90;;;;;;5092837;28;20476;-77
2023/07/28 02:29:03;;;;;;;1.45;0.70;;;19.50;99.90;;;;;;5092842;28;20384;-77
2023/07/28 02:31:28;;;;;;;0.13;0.13;;;19.30;99.90;;;;;;5093963;28;20025;-76
2023/07/28 02:33:55;;;;;;;3.72;2.05;;;19.50;99.90;;;;;;5092794;28;20533;-77
2023/07/28 02:36:20;;;;;;;0.10;0.10;;;19.80;99.90;;;;;;5092159;28;20024;-77
2023/07/28 02:38:46;;;;;;;0.65;0.65;;;19.80;99.90;;;;;;5092747;28;20384;-77
2023/07/28 02:41:12;;;;;;;0.30;0.22;;;19.80;99.90;;;;;;5092576;28;20070;-77
2023/07/28 02:43:38;;;;;;;3.05;1.98;;;19.60;99.90;;;;;;5093656;28;20052;-77
2023/07/28 02:46:05;;;;;;;1.90;0.70;;;19.30;99.90;;;;;;5092446;28;20051;-73
2023/07/28 02:48:31;;;;;;;0.00;0.00;;;19.30;99.90;;;;;;5092423;28;20107;-77
2023/07/28 02:50:56;;;;;;;0.50;0.50;;;19.20;99.90;;;;;;5092072;28;20162;-77
2023/07/28 02:53:22;;;;;;;2.88;2.20;;;19.30;99.90;;;;;;5092264;28;20040;-77
2023/07/28 02:55:48;;;;;;;0.60;0.28;;;19.20;99.90;;;;;;5092192;28;20024;-77
2023/07/28 02:58:14;;;;;;;3.53;0.55;;;19.40;99.90;;;;;;5092359;28;20107;-77
2023/07/28 03:00:41;;;;;;;0.10;0.10;;;19.40;99.90;;;;;;5075769;28;20027;-77
2023/07/28 03:03:12;;;;;;;2.30;1.55;;;19.40;99.90;;;;;;5080112;28;20552;-75
2023/07/28 03:05:40;;;;;;;0.80;0.80;;;19.20;99.90;;;;;;5091749;28;20381;-77
2023/07/28 03:08:25;;;;;;;2.30;1.67;;;19.20;99.90;;;;;;5092160;28;20028;-76
2023/07/28 03:10:59;;;;;;;0.40;0.40;;;19.20;99.90;;;;;;5092021;28;20024;-76
2023/07/28 03:13:25;;;;;;;1.27;0.60;;;19.20;99.90;;;;;;5075342;28;20089;-76
2023/07/28 03:15:50;;;;;;;0.22;0.22;;;19.30;99.90;;;;;;5092043;28;20020;-77
2023/07/28 03:18:20;;;;;;;1.00;1.00;;;19.30;99.90;;;;;;5091976;28;20119;-76
2023/07/28 03:20:47;;;;;;;0.25;0.25;;;19.30;99.90;;;;;;5092095;28;20081;-77
2023/07/28 03:23:13;;;;;;;19.77;1.08;;;19.20;99.90;;;;;;5091798;28;20491;-77
2023/07/28 03:25:39;;;;;;;0.00;0.00;;;19.30;99.90;;;;;;5091705;28;20123;-77
2023/07/28 03:28:04;;;;;;;0.52;0.52;;;19.30;99.90;;;;;;5093432;28;20103;-77
2023/07/28 03:30:30;;;;;;;0.43;0.35;;;19.30;99.90;;;;;;5091560;28;20032;-77
2023/07/28 03:32:56;;;;;;;0.90;0.90;;;19.20;99.90;;;;;;5085157;28;20380;-77
2023/07/28 03:35:22;;;;;;;0.10;0.10;;;19.30;99.90;;;;;;5071131;28;20499;-77
2023/07/28 03:37:57;;;;;;;0.20;0.20;;;19.60;99.90;;;;;;5071465;28;20370;-77
2023/07/28 03:40:23;;;;;;;0.20;0.20;;;19.80;99.90;;;;;;5071347;28;20078;-76
2023/07/28 03:42:52;;;;;;;0.10;0.10;;;19.90;99.90;;;;;;5071239;28;20029;-77
2023/07/28 03:45:18;;;;;;;0.73;0.65;;;19.90;99.90;;;;;;5071296;28;20021;-77
2023/07/28 03:47:44;;;;;;;0.52;0.47;;;19.80;99.90;;;;;;5070770;28;20024;-78
2023/07/28 03:50:10;;;;;;;0.00;0.00;;;19.60;99.90;;;;;;5071178;28;20347;-77
2023/07/28 03:52:35;;;;;;;0.00;0.00;;;19.40;99.90;;;;;;5071061;28;20076;-77
2023/07/28 03:55:01;;;;;;;0.05;0.05;;;19.40;99.90;;;;;;5071068;28;20493;-77
2023/07/28 03:57:27;;;;;;;0.75;0.75;;;19.60;99.90;;;;;;5072349;28;20083;-77
2023/07/28 03:59:53;;;;;;;0.32;0.32;;;19.90;99.90;;;;;;5071068;28;20481;-77
2023/07/28 04:02:19;;;;;;;0.38;0.38;;;20.00;99.90;;;;;;5073429;28;20033;-77
2023/07/28 04:04:44;;;;;;;0.00;0.00;;;19.60;99.90;;;;;;5074656;28;20030;-77
2023/07/28 04:07:10;;;;;;;0.20;0.17;;;19.50;99.90;;;;;;5091157;28;20039;-76
2023/07/28 04:09:36;;;;;;;0.13;0.13;;;19.60;99.90;;;;;;5091280;28;20024;-77
2023/07/28 04:12:02;;;;;;;0.28;0.28;;;19.60;99.90;;;;;;5092594;28;20040;-77
2023/07/28 04:14:27;;;;;;;0.55;0.50;;;19.60;99.90;;;;;;5092597;28;20035;-77
2023/07/28 04:16:53;;;;;;;0.38;0.38;;;19.60;99.90;;;;;;5092276;28;20020;-77
2023/07/28 04:19:19;;;;;;;0.05;0.05;;;19.90;99.90;;;;;;5091372;28;20042;-77
2023/07/28 04:21:45;;;;;;;1.17;0.38;;;19.70;99.90;;;;;;5092288;28;20469;-77
2023/07/28 04:24:11;;;;;;;0.80;0.75;;;19.50;99.90;;;;;;5091139;28;20027;-77
2023/07/28 04:26:43;;;;;;;0.45;0.45;;;19.50;99.90;;;;;;5090727;28;20431;-77
2023/07/28 04:29:09;;;;;;;0.47;0.47;;;19.80;99.90;;;;;;5090602;28;20016;-78
2023/07/28 04:31:35;;;;;;;0.52;0.52;;;19.80;99.90;;;;;;5089642;28;20077;-77
2023/07/28 04:34:07;;;;;;;0.55;0.55;;;19.60;99.90;;;;;;5090480;28;20123;-78
2023/07/28 04:36:52;;;;;;;2.35;1.08;;;19.30;99.90;;;;;;5077440;28;20091;-77
2023/07/28 04:39:22;;;;;;;0.00;0.00;;;19.40;99.90;;;;;;5090879;28;20077;-77
2023/07/28 04:41:48;;;;;;;0.00;0.00;;;19.50;99.90;;;;;;5090644;28;20032;-77
2023/07/28 04:44:14;;;;;;;0.13;0.13;;;19.60;99.90;;;;;;5091116;28;20448;-77
2023/07/28 04:46:42;;;;;;;0.85;0.85;;;19.70;99.90;;;;;;5093830;28;20052;-76
2023/07/28 04:49:12;;;;;;;0.32;0.32;;;19.60;99.90;;;;;;5094715;28;20077;-77
2023/07/28 04:51:56;;;;;;;0.70;0.70;;;19.60;99.90;;;;;;5095798;28;20503;-76
2023/07/28 04:54:22;;;;;;;0.30;0.30;;;19.60;99.90;;;;;;5095907;28;20056;-75
2023/07/28 04:56:49;;;;;;;0.47;0.30;;;19.50;99.90;;;;;;5094441;28;20526;-77
2023/07/28 04:59:15;;;;;;;0.10;0.10;;;19.50;99.90;;;;;;5094482;28;20028;-77
2023/07/28 05:01:41;;;;;;;0.00;0.00;;;19.30;99.90;;;;;;5082704;28;20028;-75
2023/07/28 05:04:08;;;;;;;10.18;1.13;;;19.50;99.90;;;;;;5087809;28;20036;-76
2023/07/28 05:06:34;;;;;;;1.65;0.52;;;19.40;99.90;;;;;;5073769;28;20077;-77
2023/07/28 05:08:59;;;;;;;0.57;0.57;;;19.30;99.90;;;;;;5075660;28;20416;-76
2023/07/28 05:11:32;;;;;;;7.53;0.95;;;19.20;99.90;;;;;;5073914;28;20028;-76
2023/07/28 05:13:58;;;;;;;0.00;0.00;;;19.30;99.90;;;;;;5073985;28;20447;-76
2023/07/28 05:16:24;;;;;;;0.73;0.73;;;19.50;99.90;;;;;;5073716;28;20112;-76
2023/07/28 05:19:08;;;;;;;0.17;0.17;;;19.40;99.90;;;;;;5075110;28;20444;-74
2023/07/28 05:21:52;;;;;;;1.35;0.50;;;19.50;99.90;;;;;;5075332;28;20107;-76
2023/07/28 05:24:21;;;;;;;0.00;0.00;;;19.40;99.90;;;;;;5073783;28;20454;-75
2023/07/28 05:26:47;;;;;;;0.43;0.43;;;19.40;99.90;;;;;;5073735;28;20021;-77
2023/07/28 05:29:13;;;;;;;0.10;0.10;;;19.40;99.90;;;;;;5073572;28;20366;-76
2023/07/28 05:31:39;;;;;;;0.10;0.10;;;19.40;99.90;;;;;;5073678;28;20037;-77
2023/07/28 05:34:15;;;;;;;0.20;0.20;;;19.40;99.90;;;;;;5073580;28;20040;-77
2023/07/28 05:36:41;;;;;;;0.00;0.00;;;19.60;99.90;;;;;;5073560;28;20078;-77
2023/07/28 05:39:07;;;;;;;0.55;0.55;;;19.80;99.90;;;;;;5056883;28;20024;-76
2023/07/28 05:41:40;;;;;;;0.22;0.22;;;19.70;99.90;;;;;;5073237;28;20089;-77
2023/07/28 05:44:09;;;;;;;0.00;0.00;;;19.80;99.90;;;;;;5073216;28;20028;-77
2023/07/28 05:46:35;;;;;;;0.40;0.30;;;19.90;99.90;;;;;;5073189;28;20024;-77
2023/07/28 05:49:00;;;;;;;0.30;0.30;;;19.90;99.90;;;;;;5073407;28;20024;-77
2023/07/28 05:51:26;;;;;;;11.02;9.95;;;19.90;99.90;;;;;;5074512;28;20028;-76
2023/07/28 05:53:52;;;;;;;1.15;1.05;;;19.80;99.90;;;;;;5074412;28;20036;-76
2023/07/28 05:56:19;;;;;;;0.20;0.20;;;19.60;99.90;;;;;;5072543;28;20078;-75
2023/07/28 05:58:49;;;;;;;0.10;0.10;;;19.60;99.90;;;;;;5072098;28;20427;-72
2023/07/28 06:01:16;;;;;;;1.63;1.55;;;19.60;99.90;;;;;;5079784;28;20036;-73
2023/07/28 06:04:11;;;;;;;0.10;0.10;;;19.60;99.90;;;;;;5072275;28;20044;-76
2023/07/28 06:06:45;;;;;;;0.00;0.00;;;19.60;99.90;;;;;;5072836;28;20484;-76
2023/07/28 06:09:13;;;;;;;0.15;0.15;;;19.70;99.90;;;;;;5073255;28;20115;-77
2023/07/28 06:11:39;;;;;;;0.00;0.00;;;19.80;99.90;;;;;;5090708;28;20043;-76
2023/07/28 06:14:05;;;;;;;0.65;0.55;;;19.80;99.90;;;;;;5078365;28;20489;-72
2023/07/28 06:16:34;;;;;;;0.10;0.10;;;19.80;99.90;;;;;;5073939;28;20347;-76
2023/07/28 06:18:59;;;;;;;0.17;0.17;;;19.80;99.90;;;;;;5072651;28;20027;-78
2023/07/28 06:21:25;;;;;;;0.13;0.13;;;19.70;99.90;;;;;;5072548;28;20098;-78
2023/07/28 06:23:51;;;;;;;0.15;0.15;;;19.90;99.90;;;;;;5072608;28;20115;-78
2023/07/28 06:26:17;;;;;;;0.60;0.60;;;19.90;99.90;;;;;;5072446;28;20035;-78
2023/07/28 06:28:42;;;;;;;0.00;0.00;;;19.90;99.90;;;;;;5072277;28;20025;-72
2023/07/28 06:31:09;;;;;;;0.98;0.73;;;20.00;99.90;;;;;;5077543;28;20027;-76
2023/07/28 06:33:36;;;;;;;1.40;0.90;;;19.90;99.90;;;;;;5079527;28;20020;-76
2023/07/28 06:36:04;;;;;;;0.40;0.40;;;20.00;99.90;;;;;;5076143;28;20070;-77
2023/07/28 06:38:30;;;;;;;2.17;1.13;;;19.90;99.90;;;;;;5063747;28;20016;-77
2023/07/28 06:40:55;;;;;;;0.45;0.32;;;19.90;99.90;;;;;;5081606;28;20028;-78
2023/07/28 06:43:21;;;;;;;0.20;0.10;;;19.90;99.90;;;;;;5083388;28;20028;-78
2023/07/28 06:45:50;;;;;;;0.70;0.50;;;19.90;99.90;;;;;;5079945;28;20017;-77
2023/07/28 06:48:16;;;;;;;0.00;0.00;;;19.90;99.90;;;;;;5078975;28;20028;-74
2023/07/28 06:50:42;;;;;;;0.20;0.20;;;19.90;99.90;;;;;;5071257;28;20169;-76
2023/07/28 06:53:08;;;;;;;2.75;0.63;;;19.80;99.90;;;;;;5084433;28;20036;-76
2023/07/28 06:55:35;;;;;;;0.57;0.57;;;19.90;99.90;;;;;;5080236;28;20472;-72
2023/07/28 06:58:03;;;;;;;0.30;0.30;;;19.90;99.90;;;;;;5074294;28;20024;-78
2023/07/28 07:00:29;;;;;;;0.08;0.08;;;20.00;99.90;;;;;;5078209;28;20384;-77
2023/07/28 07:02:55;;;;;;;0.85;0.50;;;20.00;99.90;;;;;;5081014;28;20073;-72
2023/07/28 07:05:21;;;;;;;0.10;0.10;;;19.90;99.90;;;;;;5091283;28;20035;-74
2023/07/28 07:07:46;;;;;;;0.55;0.55;;;20.10;99.90;;;;;;5090792;28;20024;-72
2023/07/28 07:10:12;;;;;;;3.13;0.45;;;19.90;99.90;;;;;;5082495;28;20032;-72
2023/07/28 07:12:38;;;;;;;0.20;0.20;;;20.10;99.90;;;;;;5074203;28;20119;-72
2023/07/28 07:15:05;;;;;;;0.10;0.10;;;20.20;99.90;;;;;;5091931;28;20036;-72
2023/07/28 07:17:32;;;;;;;0.45;0.40;;;19.80;99.90;;;;;;5092172;28;20077;-73
2023/07/28 07:19:58;;;;;;;0.52;0.43;;;19.90;99.90;;;;;;5089631;28;20016;-72
2023/07/28 07:22:23;;;;;;;0.05;0.05;;;20.00;99.90;;;;;;5092228;28;20089;-73
2023/07/28 07:24:49;;;;;;;0.05;0.05;;;20.20;99.90;;;;;;5091717;28;20020;-73
2023/07/28 07:27:15;;;;;;;0.00;0.00;;;20.30;99.90;;;;;;5091835;28;20028;-77
2023/07/28 07:29:40;;;;;;;1.40;0.80;;;20.40;99.90;;;;;;5092244;28;20357;-77
2023/07/28 07:32:07;;;;;;;1.65;0.68;;;20.30;99.90;;;;;;5083412;28;20042;-78
2023/07/28 07:34:33;;;;;;;0.05;0.05;;;20.30;99.90;;;;;;5092113;28;20032;-77
2023/07/28 07:36:59;;;;;;;0.47;0.40;;;20.20;99.90;;;;;;5091876;28;20024;-74
2023/07/28 07:39:25;;;;;;;0.50;0.50;;;20.20;99.90;;;;;;5090573;28;20050;-73
2023/07/28 07:41:51;;;;;;;0.60;0.60;;;20.30;99.90;;;;;;5091748;28;20102;-72
2023/07/28 07:44:16;;;;;;;0.00;0.00;;;20.60;99.90;;;;;;5092128;28;20032;-74
2023/07/28 07:46:42;;;;;;;2.17;0.55;;;21.00;99.90;;;;;;5091774;28;20012;-73
2023/07/28 07:49:08;;;;;;;0.28;0.28;;;21.20;99.90;;;;;;5091807;28;20036;-72
2023/07/28 07:51:34;;;;;;;0.30;0.30;;;20.80;99.90;;;;;;5091629;28;20031;-71
2023/07/28 07:54:01;;;;;;;0.28;0.28;;;20.50;99.90;;;;;;5088217;28;20115;-72
2023/07/28 07:56:27;;;;;;;0.70;0.43;;;20.20;99.90;;;;;;5090615;28;20023;-71
2023/07/28 07:58:53;;;;;;;0.43;0.40;;;20.30;99.90;;;;;;5091693;28;20032;-71
2023/07/28 08:01:18;;;;;;;0.20;0.20;;;20.30;99.90;;;;;;5089035;28;20031;-70
2023/07/28 08:03:44;;;;;;;1.40;0.93;;;20.40;99.90;;;;;;5091329;28;20468;-71
2023/07/28 08:06:11;;;;;;;0.45;0.45;;;20.20;99.90;;;;;;5075902;28;20055;-71
2023/07/28 08:08:37;;;;;;;0.00;0.00;;;20.10;99.90;;;;;;5080621;28;20027;-71
2023/07/28 08:11:03;;;;;;;2.40;1.05;;;20.20;99.90;;;;;;5077222;28;20340;-71
2023/07/28 08:13:29;;;;;;;0.10;0.10;;;20.40;99.90;;;;;;5076849;28;20107;-71
2023/07/28 08:15:55;;;;;;;0.13;0.13;;;20.60;99.90;;;;;;5074823;28;20121;-71
2023/07/28 08:18:20;;;;;;;0.00;0.00;;;21.00;99.90;;;;;;5076846;28;20095;-78
2023/07/28 08:20:46;;;;;;;0.88;0.85;;;20.80;99.90;;;;;;5081615;28;20051;-76
2023/07/28 08:23:12;;;;;;;0.00;0.00;;;20.90;99.90;;;;;;5077112;28;20037;-74
2023/07/28 08:25:38;;;;;;;2.45;1.15;;;20.90;99.90;;;;;;5076344;28;20040;-72
2023/07/28 08:28:04;;;;;;;1.05;0.68;;;20.50;99.90;;;;;;5080190;28;20024;-77
2023/07/28 08:30:31;;;;;;;0.10;0.10;;;20.80;99.90;;;;;;5082212;28;20028;-77
2023/07/28 08:32:57;;;;;;;1.10;0.25;;;21.10;99.90;;;;;;5075156;28;20029;-77
2023/07/28 08:35:23;;;;;;;0.22;0.17;;;21.10;99.90;;;;;;5075942;28;20039;-76
2023/07/28 08:37:49;;;;;;;0.52;0.52;;;21.10;99.90;;;;;;5075431;28;20028;-76
2023/07/28 08:40:15;;;;;;;0.65;0.65;;;21.00;99.90;;;;;;5075874;28;20029;-76
2023/07/28 08:42:41;;;;;;;0.00;0.00;;;20.80;99.90;;;;;;5076741;28;20024;-76
2023/07/28 08:45:08;;;;;;;0.00;0.00;;;21.10;99.90;;;;;;5075318;28;20033;-76
2023/07/28 08:47:34;;;;;;;0.68;0.10;;;21.50;99.90;;;;;;5075301;28;20048;-76
2023/07/28 08:50:01;;;;;;;1.45;0.60;;;21.70;99.90;;;;;;5075435;28;20028;-74
2023/07/28 08:52:27;;;;;;;0.10;0.10;;;21.70;99.90;;;;;;5075289;28;20082;-73
2023/07/28 08:54:53;;;;;;;0.32;0.32;;;21.40;99.90;;;;;;5075357;28;20016;-75
2023/07/28 08:57:19;;;;;;;0.00;0.00;;;21.20;99.90;;;;;;5075545;28;20370;-75
2023/07/28 08:59:47;;;;;;;0.10;0.10;;;21.10;99.90;;;;;;5074263;28;20008;-75
2023/07/28 09:02:18;;;;;;;0.93;0.75;;;21.40;99.90;;;;;;5075683;28;20036;-76
2023/07/28 09:04:44;;;;;;;0.28;0.20;;;21.50;99.90;;;;;;5095589;28;20053;-75
2023/07/28 09:07:10;;;;;;;0.13;0.13;;;22.00;99.90;;;;;;5094406;28;20036;-75
2023/07/28 09:09:36;;;;;;;1.30;1.15;;;22.00;99.90;;;;;;5088201;28;20028;-75
2023/07/28 09:12:03;;;;;;;0.28;0.28;;;21.90;99.90;;;;;;5073582;28;20492;-75
2023/07/28 09:14:30;;;;;;;0.38;0.38;;;21.50;99.90;;;;;;5073508;28;20036;-75
2023/07/28 09:17:05;;;;;;;0.28;0.28;;;21.60;99.90;;;;;;5075292;28;20038;-74
2023/07/28 09:19:30;;;;;;;0.00;0.00;;;22.00;99.90;;;;;;5073571;28;20017;-77
2023/07/28 09:22:01;;;;;;;0.95;0.70;;;22.10;99.90;;;;;;5075067;28;20469;-75
2023/07/28 09:24:32;;;;;;;0.20;0.20;;;22.00;99.90;;;;;;5074918;28;20039;-76
2023/07/28 09:26:58;;;;;;;0.60;0.25;;;21.80;99.90;;;;;;5075300;28;20373;-75
2023/07/28 09:29:25;;;;;;;0.25;0.25;;;22.30;99.90;;;;;;5075549;28;20029;-75
2023/07/28 09:31:52;;;;;;;2.30;0.85;;;22.80;99.90;;;;;;5078064;28;20112;-76
2023/07/28 09:34:26;;;;;;;3.40;1.00;;;22.10;99.90;;;;;;5088676;28;20480;-77
2023/07/28 09:36:56;;;;;;;0.50;0.50;;;22.10;99.90;;;;;;5074680;28;20535;-78
2023/07/28 09:39:22;;;;;;;1.45;0.70;;;22.20;99.90;;;;;;5082343;28;20397;-75
2023/07/28 09:41:49;;;;;;;1.65;0.65;;;22.00;99.90;;;;;;5083547;28;20012;-76
2023/07/28 09:44:15;;;;;;;0.10;0.10;;;22.40;99.90;;;;;;5077807;28;20024;-76
2023/07/28 09:46:55;;;;;;;0.52;0.45;;;22.90;99.90;;;;;;5075382;28;20021;-76
2023/07/28 09:49:28;;;;;;;4.13;1.27;;;23.30;99.90;;;;;;5078328;28;20025;-77
2023/07/28 09:51:57;;;;;;;0.43;0.20;;;22.60;99.90;;;;;;5074625;28;20063;-76
2023/07/28 09:54:29;;;;;;;0.35;0.32;;;22.30;99.90;;;;;;5080518;28;20024;-77
2023/07/28 09:56:59;;;;;;;0.17;0.17;;;22.50;99.90;;;;;;5077491;28;20038;-77
2023/07/28 09:59:31;;;;;;;0.20;0.20;;;22.70;99.90;;;;;;5081078;28;20012;-78
2023/07/28 10:02:00;;;;;;;0.75;0.10;;;22.70;99.90;;;;;;5082352;28;20028;-77
2023/07/28 10:04:25;;;;;;;0.10;0.10;;;22.70;99.90;;;;;;5092994;28;20035;-78
2023/07/28 10:06:56;;;;;;;1.20;0.80;;;22.70;99.90;;;;;;5093747;28;20084;-78
2023/07/28 10:09:33;;;;;;;0.10;0.10;;;22.40;99.90;;;;;;5092581;28;20102;-76
2023/07/28 10:12:00;;;;;;;0.10;0.10;;;21.90;99.90;;;;;;5079940;28;20051;-76
2023/07/28 10:14:37;;;;;;;0.00;0.00;;;22.30;99.90;;;;;;5093458;28;20065;-76
2023/07/28 10:17:04;;;;;;;0.55;0.55;;;22.50;99.90;;;;;;5096100;28;20042;-77
2023/07/28 10:19:39;;;;;;;0.47;0.47;;;22.60;99.90;;;;;;5093067;28;20028;-77
2023/07/28 10:22:10;;;;;;;0.25;0.25;;;22.60;99.90;;;;;;5078140;28;20503;-81
2023/07/28 10:24:56;;;;;;;1.58;1.13;;;22.20;99.90;;;;;;5091094;28;20035;-79
2023/07/28 10:27:33;;;;;;;6.60;0.68;;;22.10;99.90;;;;;;5073458;28;20029;-76
2023/07/28 10:30:03;;;;;;;0.65;0.08;;;22.40;99.90;;;;;;5088602;28;20111;-75
2023/07/28 10:32:29;;;;;;;0.38;0.38;;;22.60;99.90;;;;;;5084258;28;20046;-77
2023/07/28 10:35:06;;;;;;;0.00;0.00;;;22.90;99.90;;;;;;5073394;28;20491;-76
2023/07/28 10:37:31;;;;;;;0.08;0.08;;;22.90;99.90;;;;;;5081377;28;20028;-76
2023/07/28 10:40:23;;;;;;;3.60;0.93;;;23.10;99.90;;;;;;5085940;28;20028;-77
2023/07/28 10:42:50;;;;;;;0.00;0.00;;;23.10;99.90;;;;;;5085909;28;20116;-77
2023/07/28 10:45:16;;;;;;;0.47;0.47;;;23.80;99.90;;;;;;5092526;28;20030;-76
2023/07/28 10:47:43;;;;;;;0.65;0.65;;;23.80;99.90;;;;;;5092156;28;20035;-76
2023/07/28 10:50:10;;;;;;;2.10;1.33;;;23.40;99.90;;;;;;5092686;28;20023;-76
2023/07/28 10:52:40;;;;;;;0.00;0.00;;;23.00;99.90;;;;;;5092181;28;20039;-74
2023/07/28 10:55:21;;;;;;;0.50;0.50;;;23.20;99.90;;;;;;5086782;28;20028;-75
2023/07/28 10:57:48;;;;;;;0.90;0.50;;;23.10;99.90;;;;;;5077225;28;20358;-76
2023/07/28 11:00:23;;;;;;;0.15;0.15;;;22.60;99.90;;;;;;5074069;28;20104;-77
2023/07/28 11:02:55;;;;;;;0.95;0.90;;;22.50;99.90;;;;;;5076485;28;20028;-75
2023/07/28 11:05:23;;;;;;;0.00;0.00;;;22.50;99.90;;;;;;5086526;28;20502;-74
2023/07/28 11:07:50;;;;;;;1.52;1.23;;;22.60;99.90;;;;;;5081689;28;20035;-74
2023/07/28 11:10:17;;;;;;;0.77;0.73;;;22.30;99.90;;;;;;5081156;28;20020;-74
2023/07/28 11:12:44;;;;;;;0.20;0.20;;;22.60;99.90;;;;;;5073702;28;20123;-75
2023/07/28 11:15:11;;;;;;;0.25;0.25;;;22.80;99.90;;;;;;5073364;28;20074;-75
2023/07/28 11:17:41;;;;;;;0.22;0.22;;;23.10;99.90;;;;;;5078932;28;20020;-74
2023/07/28 11:20:18;;;;;;;0.07;0.07;;;23.10;99.90;;;;;;5077333;28;20123;-75
2023/07/28 11:22:45;;;;;;;1.80;0.93;;;22.80;99.90;;;;;;5076711;28;20020;-75
2023/07/28 11:25:11;;;;;;;0.63;0.63;;;22.30;99.90;;;;;;5077831;28;20123;-75
2023/07/28 11:27:38;;;;;;;0.05;0.05;;;22.00;99.90;;;;;;5074049;28;20031;-72
2023/07/28 11:30:05;;;;;;;0.00;0.00;;;21.80;99.90;;;;;;5072528;28;20107;-73
2023/07/28 11:32:31;;;;;;;0.82;0.55;;;22.20;99.90;;;;;;5072204;28;20029;-73
2023/07/28 11:35:11;;;;;;;0.13;0.13;;;22.30;99.90;;;;;;5072540;28;20053;-73
2023/07/28 11:37:39;;;;;;;0.22;0.20;;;22.70;99.90;;;;;;5080823;28;20089;-73
2023/07/28 11:40:08;;;;;;;0.08;0.08;;;23.10;99.90;;;;;;5092898;28;20031;-73
2023/07/28 11:42:52;;;;;;;0.73;0.63;;;23.20;99.90;;;;;;5092849;28;20043;-73
2023/07/28 11:45:19;;;;;;;0.60;0.60;;;22.90;99.90;;;;;;5092681;28;20032;-72
2023/07/28 11:48:09;;;;;;;0.95;0.45;;;22.80;99.90;;;;;;5091289;28;20028;-73
2023/07/28 11:50:38;;;;;;;0.55;0.55;;;22.60;99.90;;;;;;5092054;28;20059;-77
2023/07/28 11:53:05;;;;;;;0.38;0.38;;;22.60;99.90;;;;;;5092312;28;20047;-80
2023/07/28 11:55:32;;;;;;;0.38;0.28;;;22.10;99.90;;;;;;5095799;28;20028;-79
2023/07/28 11:58:01;;;;;;;0.30;0.30;;;22.10;99.90;;;;;;5096888;28;20073;-80
2023/07/28 12:00:40;;;;;;;0.03;0.03;;;22.10;99.90;;;;;;5096538;28;20496;-81
2023/07/28 12:03:09;;;;;;;0.22;0.22;;;22.30;99.90;;;;;;5084509;28;20020;-80
2023/07/28 12:05:39;;;;;;;0.47;0.47;;;22.50;99.90;;;;;;5095461;28;20115;-80
2023/07/28 12:08:07;;;;;;;0.03;0.03;;;22.30;99.90;;;;;;5097022;28;20414;-80
2023/07/28 12:10:33;;;;;;;0.17;0.17;;;22.00;99.90;;;;;;5097209;28;20484;-79
2023/07/28 12:13:09;;;;;;;0.10;0.10;;;22.10;99.90;;;;;;5096534;28;20039;-80
2023/07/28 12:15:41;;;;;;;1.83;0.68;;;22.10;99.90;;;;;;5096532;28;20087;-80
2023/07/28 12:18:15;;;;;;;0.30;0.30;;;22.00;99.90;;;;;;5096542;28;20073;-80
2023/07/28 12:20:49;;;;;;;0.20;0.20;;;22.10;99.90;;;;;;5096760;28;20039;-80
2023/07/28 12:23:20;;;;;;;0.00;0.00;;;22.40;99.90;;;;;;5096353;28;20024;-80
2023/07/28 12:25:47;;;;;;;0.20;0.20;;;22.40;99.90;;;;;;5095316;28;20028;-77
2023/07/28 12:28:12;;;;;;;0.10;0.03;;;22.80;99.90;;;;;;5096256;28;20564;-77
2023/07/28 12:30:38;;;;;;;0.00;0.00;;;23.00;99.90;;;;;;5096131;28;20028;-78
2023/07/28 12:33:05;;;;;;;0.35;0.35;;;23.20;99.90;;;;;;5096012;28;20040;-72
2023/07/28 12:35:34;;;;;;;0.00;0.00;;;23.40;99.90;;;;;;5091524;28;20461;-80
2023/07/28 12:38:01;;;;;;;2.67;0.25;;;23.20;99.90;;;;;;5087467;28;20055;-80
2023/07/28 12:40:29;;;;;;;0.20;0.15;;;23.20;99.90;;;;;;5096169;28;20032;-80
2023/07/28 12:42:55;;;;;;;0.03;0.03;;;23.10;99.90;;;;;;5096277;28;20052;-80
2023/07/28 12:45:22;;;;;;;0.38;0.30;;;23.30;99.90;;;;;;5095809;28;20126;-79
2023/07/28 12:47:47;;;;;;;0.00;0.00;;;23.00;99.90;;;;;;5096120;28;20484;-79
2023/07/28 12:50:13;;;;;;;0.00;0.00;;;23.20;99.90;;;;;;5096201;28;20027;-78